This is the latest recevied weather packets stored in our database for station/object DH8TOM-4. If no packets are shown the sender has not sent any weather packets the latest 10 day(s).
| Time | Temp. | Humidity | Pressure | Rain* | Wind** | Luminosity | Snow |
|---|---|---|---|---|---|---|---|
| 1787476313 | 20.56° C | 59% | 1021.9 hPa | - | - | - | - |
| 1787476012 | 20.56° C | 59% | 1021.9 hPa | - | - | - | - |
| 1787475712 | 21.11° C | 58% | 1021.9 hPa | - | - | - | - |
| 1787475410 | 21.11° C | 58% | 1021.9 hPa | - | - | - | - |
| 1787475110 | 20.56° C | 59% | 1021.9 hPa | - | - | - | - |
| 1787474809 | 21.11° C | 57% | 1021.9 hPa | - | - | - | - |
| 1787474507 | 21.11° C | 57% | 1021.9 hPa | - | - | - | - |
| 1787474207 | 21.11° C | 57% | 1021.9 hPa | - | - | - | - |
| 1787473905 | 21.11° C | 59% | 1021.9 hPa | - | - | - | - |
| 1787473604 | 21.11° C | 59% | 1021.9 hPa | - | - | - | - |
| 1787473304 | 20.56° C | 61% | 1021.8 hPa | - | - | - | - |
| 1787473002 | 20.56° C | 61% | 1021.8 hPa | - | - | - | - |
| 1787472702 | 20.56° C | 62% | 1021.8 hPa | - | - | - | - |
| 1787472400 | 21.11° C | 60% | 1021.8 hPa | - | - | - | - |
| 1787472099 | 21.11° C | 60% | 1021.8 hPa | - | - | - | - |
| 1787471799 | 21.11° C | 60% | 1021.8 hPa | - | - | - | - |
| 1787471497 | 22.22° C | 58% | 1021.8 hPa | - | - | - | - |
| 1787471196 | 22.22° C | 58% | 1021.8 hPa | - | - | - | - |
| 1787470896 | 23.33° C | 58% | 1021.8 hPa | - | - | - | - |
| 1787470594 | 23.33° C | 58% | 1021.8 hPa | - | - | - | - |
| 1787470306 | 23.33° C | 60% | 1021.7 hPa | - | - | - | - |
| 1787469992 | 23.33° C | 60% | 1021.7 hPa | - | - | - | - |
| 1787469691 | 22.78° C | 63% | 1021.7 hPa | - | - | - | - |
| 1787469390 | 22.78° C | 63% | 1021.7 hPa | - | - | - | - |
| 1787469090 | 21.67° C | 68% | 1021.8 hPa | - | - | - | - |
* Rain since midnight (hover to see other rain measurements)
** Current wind speed in m/s (hover to see current wind gust speed)